Lake Forest, Missouri
Current Conditions -  °F | °C
As of 5:55 PM on Wednesday 22 Oct 2014 (Local Time) from KSAR Reporting Station
Haze Haze  
Wind Chill: 59°   Ceiling: 200
Heat Index: 59°   Visibility: 0.25mi
Dew Point: 41°   Wind: 3mph
Humidity: 51%   Direction: 100°E
Pressure: 30.23"   Gusts: NA
Location:  37.9762°N, 90.0499°W
Report Text: KSAR 222255Z AUTO 10003KT 1/4SM HZ VV002 15/05 A3023 RMK AO2 T01520050
Loading
Personal Weather Stations






























Interactive Weather Map
Tropical Storm Tracking
New forecast layout! Learn more

10-Day Weather Forecast

Advertisements
Track Severe Weather on mobile